KSBA/SBA METAR and TAF weather

Enter ICAO airport designator
Station Type Date Time Source
KSBA METAR 2019/10/23 07:53 UTC NOAA

KSBA 230753Z AUTO 00000KT 10SM CLR 15/07 A2993 RMK AO2 SLP136 T01500072 403220111


Station Type Date Time Source
KSBA Decoded METAR 2019/10/23 07:53 UTC NOAA

SANTA BARBARA MUNICIPAL, CA, United States (KSBA) 34-26N 119-51W 3M
Oct 23, 2019 - 03:53 AM EDT / 2019.10.23 0753 UTC
Wind: Calm:0
Visibility: 10 mile(s):0
Sky conditions: clear
Temperature: 59.0 F (15.0 C)
Dew Point: 45.0 F (7.2 C)
Relative Humidity: 59%
Pressure (altimeter): 29.93 in. Hg (1013 hPa)
ob: KSBA 230753Z AUTO 00000KT 10SM CLR 15/07 A2993 RMK AO2 SLP136 T01500072 403220111
cycle: 8

Station Type Date Time Source
KSBA TAF 2019/10/23 06:24 UTC NOAA

TAF KSBA 230522Z 2306/2406 VRB03KT P6SM SKC
FM231600 16007KT P6SM SKC
FM232000 23007KT P6SM SKC
FM240200 VRB03KT P6SM SKC

Example: see airport list